createdAt,value
2018-07-08T00:00:45.521Z,19.91
2018-07-08T00:03:14.616Z,19.82
2018-07-08T00:05:43.271Z,19.77
2018-07-08T00:08:11.989Z,19.77
2018-07-08T00:10:42.652Z,19.79
2018-07-08T00:13:11.344Z,19.76
2018-07-08T00:15:40.203Z,19.66
2018-07-08T00:18:09.291Z,19.61
2018-07-08T00:20:38.003Z,19.61
2018-07-08T00:23:06.772Z,19.63
2018-07-08T00:25:35.750Z,19.54
2018-07-08T00:28:04.623Z,19.43
2018-07-08T00:30:33.477Z,19.32
2018-07-08T00:33:02.778Z,19.26
2018-07-08T00:35:31.872Z,19.25
2018-07-08T00:38:02.050Z,19.17
2018-07-08T00:40:31.219Z,19.18
2018-07-08T00:43:00.223Z,19.18
2018-07-08T00:45:29.353Z,19.21
2018-07-08T00:47:58.667Z,19.18
2018-07-08T00:50:27.518Z,19.17
2018-07-08T00:52:56.298Z,19.05
2018-07-08T00:55:24.992Z,19.00
2018-07-08T00:57:53.721Z,18.99
2018-07-08T01:00:37.894Z,18.92
2018-07-08T01:03:09.482Z,18.92
2018-07-08T01:05:38.420Z,18.90
2018-07-08T01:08:07.147Z,18.92
2018-07-08T01:10:35.942Z,18.93
2018-07-08T01:13:04.816Z,18.95
2018-07-08T01:15:33.568Z,18.94
2018-07-08T01:18:02.298Z,18.95
2018-07-08T01:20:31.025Z,18.95
2018-07-08T01:22:59.663Z,18.93
2018-07-08T01:25:39.382Z,18.92
2018-07-08T01:28:08.725Z,18.91
2018-07-08T01:30:37.492Z,18.87
2018-07-08T01:33:06.587Z,18.85
2018-07-08T01:35:35.345Z,18.82
2018-07-08T01:38:04.038Z,18.80
2018-07-08T01:40:32.680Z,18.71
2018-07-08T01:43:01.358Z,18.70
2018-07-08T01:45:30.047Z,18.52
2018-07-08T01:47:58.803Z,18.37
2018-07-08T01:50:27.463Z,18.38
2018-07-08T01:52:56.112Z,18.36
2018-07-08T01:55:24.981Z,18.35
2018-07-08T01:57:53.644Z,18.27
2018-07-08T02:00:22.385Z,18.27
2018-07-08T02:02:51.475Z,18.23
2018-07-08T02:05:20.293Z,18.22
2018-07-08T02:07:48.969Z,18.17
2018-07-08T02:10:17.736Z,18.01
2018-07-08T02:12:46.884Z,17.97
2018-07-08T02:15:15.953Z,17.96
2018-07-08T02:17:44.722Z,18.01
2018-07-08T02:20:13.468Z,18.09
2018-07-08T02:22:42.140Z,18.15
2018-07-08T02:25:11.557Z,18.10
2018-07-08T02:27:41.763Z,18.09
2018-07-08T02:30:10.518Z,18.13
2018-07-08T02:32:39.562Z,18.14
2018-07-08T02:35:08.233Z,18.06
2018-07-08T02:37:36.986Z,17.92
2018-07-08T02:40:06.144Z,17.87
2018-07-08T02:42:35.538Z,17.89
2018-07-08T02:45:04.246Z,17.89
2018-07-08T02:47:33.021Z,17.93
2018-07-08T02:50:01.715Z,17.80
2018-07-08T02:52:30.538Z,17.73
2018-07-08T02:54:59.249Z,17.82
2018-07-08T02:57:28.223Z,17.89
2018-07-08T02:59:56.970Z,17.96
2018-07-08T03:02:25.711Z,17.97
2018-07-08T03:04:54.400Z,18.00
2018-07-08T03:07:24.242Z,18.03
2018-07-08T03:09:53.275Z,18.01
2018-07-08T03:12:23.528Z,17.97
2018-07-08T03:14:52.233Z,17.96
2018-07-08T03:17:21.551Z,17.96
2018-07-08T03:19:50.341Z,18.00
2018-07-08T03:22:19.014Z,17.99
2018-07-08T03:24:47.709Z,18.00
2018-07-08T03:27:16.405Z,18.03
2018-07-08T03:29:45.046Z,18.03
2018-07-08T03:32:13.808Z,18.00
2018-07-08T03:34:42.538Z,17.97
2018-07-08T03:37:11.772Z,17.97
2018-07-08T03:39:40.430Z,17.97
2018-07-08T03:42:09.140Z,17.94
2018-07-08T03:44:37.798Z,17.93
2018-07-08T03:47:06.475Z,17.88
2018-07-08T03:49:35.160Z,17.93
2018-07-08T03:52:04.398Z,17.96
2018-07-08T03:54:33.800Z,17.94
2018-07-08T03:57:03.632Z,17.90
2018-07-08T03:59:33.263Z,17.88
2018-07-08T04:02:03.120Z,17.91
2018-07-08T04:04:32.411Z,17.94
2018-07-08T04:07:01.681Z,17.90
2018-07-08T04:09:30.673Z,17.83
2018-07-08T04:12:00.252Z,17.85
2018-07-08T04:14:30.020Z,17.85
2018-07-08T04:16:59.353Z,17.90
2018-07-08T04:19:29.214Z,17.92
2018-07-08T04:21:59.731Z,17.91
2018-07-08T04:24:28.941Z,17.90
2018-07-08T04:26:58.020Z,17.89
2018-07-08T04:29:26.948Z,17.94
2018-07-08T04:31:55.907Z,17.99
2018-07-08T04:34:24.631Z,18.00
2018-07-08T04:36:53.341Z,18.00
2018-07-08T04:39:22.003Z,18.01
2018-07-08T04:41:50.721Z,18.02
2018-07-08T04:44:19.410Z,18.06
2018-07-08T04:46:48.120Z,18.05
2018-07-08T04:49:16.778Z,18.04
2018-07-08T04:51:45.516Z,18.06
2018-07-08T04:54:14.119Z,18.05
2018-07-08T04:56:43.095Z,18.06
2018-07-08T04:59:11.774Z,18.04
2018-07-08T05:01:40.444Z,18.09
2018-07-08T05:04:09.384Z,18.05
2018-07-08T05:06:38.586Z,18.06
2018-07-08T05:09:07.599Z,18.07
2018-07-08T05:11:36.568Z,18.11
2018-07-08T05:14:05.229Z,18.10
2018-07-08T05:16:33.981Z,18.03
2018-07-08T05:19:02.613Z,18.01
2018-07-08T05:21:31.449Z,18.03
2018-07-08T05:24:00.386Z,18.09
2018-07-08T05:26:29.358Z,18.19
2018-07-08T05:28:58.308Z,18.31
2018-07-08T05:31:27.071Z,18.40
2018-07-08T05:33:55.755Z,18.48
2018-07-08T05:36:24.369Z,18.54
2018-07-08T05:38:53.130Z,18.50
2018-07-08T05:41:21.769Z,18.49
2018-07-08T05:43:50.455Z,18.51
2018-07-08T05:46:19.106Z,18.56
2018-07-08T05:48:47.897Z,18.63
2018-07-08T05:51:16.587Z,18.66
2018-07-08T05:53:46.134Z,18.67
2018-07-08T05:56:14.808Z,18.65
2018-07-08T05:58:43.636Z,18.66
2018-07-08T06:01:12.254Z,18.64
2018-07-08T06:03:42.874Z,18.66
2018-07-08T06:06:14.150Z,18.68
2018-07-08T06:08:43.405Z,18.50
2018-07-08T06:11:12.035Z,18.45
2018-07-08T06:13:40.821Z,18.38
2018-07-08T06:16:09.479Z,18.15
2018-07-08T06:18:38.376Z,18.04
2018-07-08T06:21:07.501Z,18.14
2018-07-08T06:23:36.745Z,18.22
2018-07-08T06:26:06.167Z,18.22
2018-07-08T06:28:34.872Z,18.13
2018-07-08T06:31:03.485Z,18.16
2018-07-08T06:33:32.492Z,18.21
2018-07-08T06:36:01.454Z,18.24
2018-07-08T06:38:30.189Z,18.28
2018-07-08T06:40:59.104Z,18.30
2018-07-08T06:43:28.277Z,18.25
2018-07-08T06:45:57.606Z,18.36
2018-07-08T06:48:26.581Z,18.22
2018-07-08T06:50:55.519Z,18.21
2018-07-08T06:53:24.201Z,18.14
2018-07-08T06:55:52.886Z,18.10
2018-07-08T06:58:21.847Z,18.21
2018-07-08T07:00:50.883Z,18.31
2018-07-08T07:03:19.977Z,18.40
2018-07-08T07:05:48.920Z,18.28
2018-07-08T07:08:17.988Z,18.30
2018-07-08T07:10:47.034Z,18.23
2018-07-08T07:13:16.195Z,18.29
2018-07-08T07:15:45.683Z,18.16
2018-07-08T07:18:14.626Z,18.25
2018-07-08T07:20:43.270Z,18.45
2018-07-08T07:23:12.237Z,18.64
2018-07-08T07:25:40.898Z,18.47
2018-07-08T07:28:09.527Z,18.37
2018-07-08T07:30:38.171Z,18.47
2018-07-08T07:33:07.257Z,18.65
2018-07-08T07:35:36.216Z,18.67
2018-07-08T07:38:05.841Z,18.80
2018-07-08T07:40:34.499Z,18.88
2018-07-08T07:43:03.541Z,18.84
2018-07-08T07:45:32.617Z,18.89
2018-07-08T07:48:01.236Z,18.67
2018-07-08T07:50:29.999Z,18.70
2018-07-08T07:52:58.681Z,18.87
2018-07-08T07:55:27.302Z,19.09
2018-07-08T07:57:55.994Z,19.23
2018-07-08T08:00:24.883Z,19.34
2018-07-08T08:02:53.939Z,19.31
2018-07-08T08:05:22.738Z,19.28
2018-07-08T08:07:51.845Z,19.13
2018-07-08T08:10:20.864Z,19.23
2018-07-08T08:12:49.642Z,19.37
2018-07-08T08:15:18.507Z,19.32
2018-07-08T08:17:47.396Z,19.39
2018-07-08T08:20:16.066Z,19.42
2018-07-08T08:22:44.753Z,19.55
2018-07-08T08:25:13.444Z,19.68
2018-07-08T08:27:43.274Z,19.73
2018-07-08T08:30:12.152Z,19.36
2018-07-08T08:32:40.886Z,19.55
2018-07-08T08:35:11.780Z,19.69
2018-07-08T08:37:45.522Z,19.80
2018-07-08T08:40:15.635Z,19.82
2018-07-08T08:42:44.287Z,19.72
2018-07-08T08:45:14.257Z,19.91
2018-07-08T08:47:43.293Z,20.12
2018-07-08T08:50:12.745Z,20.47
2018-07-08T08:52:41.423Z,20.98
2018-07-08T08:55:11.208Z,21.15
2018-07-08T08:57:40.015Z,21.29
2018-07-08T09:00:11.083Z,21.18
2018-07-08T09:02:40.496Z,21.35
2018-07-08T09:05:10.187Z,21.43
2018-07-08T09:07:38.899Z,21.45
2018-07-08T09:10:07.798Z,21.45
2018-07-08T09:12:36.741Z,21.55
2018-07-08T09:15:05.558Z,21.64
2018-07-08T09:17:34.633Z,21.84
2018-07-08T09:20:03.426Z,21.95
2018-07-08T09:22:32.180Z,22.42
2018-07-08T09:25:01.384Z,23.10
2018-07-08T09:27:30.055Z,23.39
2018-07-08T09:29:58.804Z,23.60
2018-07-08T09:32:27.837Z,23.87
2018-07-08T09:34:56.544Z,23.85
2018-07-08T09:37:25.347Z,23.84
2018-07-08T09:39:54.516Z,23.60
2018-07-08T09:42:23.170Z,23.69
2018-07-08T09:44:52.413Z,23.50
2018-07-08T09:47:21.073Z,23.23
2018-07-08T09:49:49.753Z,23.30
2018-07-08T09:52:18.451Z,22.93
2018-07-08T09:54:47.504Z,23.04
2018-07-08T09:57:16.556Z,22.84
2018-07-08T09:59:45.976Z,22.54
2018-07-08T10:02:14.766Z,22.60
2018-07-08T10:04:43.494Z,22.57
2018-07-08T10:07:12.131Z,22.75
2018-07-08T10:09:41.183Z,22.78
2018-07-08T10:12:09.957Z,22.75
2018-07-08T10:14:38.639Z,22.68
2018-07-08T10:17:07.381Z,22.58
2018-07-08T10:19:36.172Z,22.53
2018-07-08T10:22:05.014Z,22.56
2018-07-08T10:24:33.791Z,22.70
2018-07-08T10:27:21.540Z,22.77
2018-07-08T10:29:50.227Z,22.92
2018-07-08T10:32:19.272Z,23.01
2018-07-08T10:34:48.039Z,23.06
2018-07-08T10:37:17.263Z,23.28
2018-07-08T10:39:45.945Z,23.43
2018-07-08T10:42:14.965Z,23.43
2018-07-08T10:44:43.786Z,23.34
2018-07-08T10:47:12.562Z,23.04
2018-07-08T10:49:42.045Z,22.97
2018-07-08T10:52:10.795Z,22.99
2018-07-08T10:54:39.822Z,22.99
2018-07-08T10:57:08.836Z,22.98
2018-07-08T10:59:37.531Z,22.92
2018-07-08T11:02:06.429Z,23.08
2018-07-08T11:04:35.178Z,23.18
2018-07-08T11:07:04.229Z,23.07
2018-07-08T11:09:33.570Z,23.17
2018-07-08T11:12:02.713Z,23.19
2018-07-08T11:14:31.686Z,23.20
2018-07-08T11:17:00.376Z,23.27
2018-07-08T11:19:29.496Z,23.19
2018-07-08T11:21:58.285Z,23.09
2018-07-08T11:24:26.940Z,22.95
2018-07-08T11:26:55.581Z,22.84
2018-07-08T11:29:24.292Z,22.79
2018-07-08T11:31:53.269Z,22.78
2018-07-08T11:34:21.997Z,22.77
2018-07-08T11:36:50.779Z,22.80
2018-07-08T11:39:20.028Z,22.79
2018-07-08T11:41:48.783Z,22.76
2018-07-08T11:44:17.454Z,22.72
2018-07-08T11:46:46.360Z,22.67
2018-07-08T11:49:15.526Z,22.66
2018-07-08T11:51:44.403Z,22.58
2018-07-08T11:54:13.119Z,22.56
2018-07-08T11:56:42.203Z,22.53
2018-07-08T11:59:10.929Z,22.45
2018-07-08T12:01:39.595Z,22.51
2018-07-08T12:04:08.339Z,22.54
2018-07-08T12:06:37.102Z,22.55
2018-07-08T12:09:06.424Z,22.69
2018-07-08T12:11:35.220Z,22.70
2018-07-08T12:14:03.940Z,22.76
2018-07-08T12:16:32.756Z,22.83
2018-07-08T12:19:01.487Z,22.82
2018-07-08T12:21:30.604Z,22.89
2018-07-08T12:23:59.338Z,22.95
2018-07-08T12:26:28.079Z,22.99
2018-07-08T12:28:56.830Z,23.10
2018-07-08T12:31:25.555Z,23.06
2018-07-08T12:33:54.759Z,23.07
2018-07-08T12:36:23.871Z,23.09
2018-07-08T12:38:53.020Z,23.20
2018-07-08T12:41:22.090Z,23.42
2018-07-08T12:43:50.824Z,23.61
2018-07-08T12:46:20.100Z,23.69
2018-07-08T12:48:48.873Z,23.73
2018-07-08T12:51:17.588Z,23.82
2018-07-08T12:53:46.583Z,24.05
2018-07-08T12:56:15.696Z,24.23
2018-07-08T12:58:44.709Z,25.21
2018-07-08T13:01:13.520Z,28.35
2018-07-08T13:03:42.267Z,31.90
2018-07-08T13:06:11.326Z,34.80
2018-07-08T13:08:40.621Z,36.83
2018-07-08T13:11:11.106Z,38.49
2018-07-08T13:13:39.869Z,40.00
2018-07-08T13:16:09.277Z,41.03
2018-07-08T13:18:38.475Z,41.23
2018-07-08T13:21:10.718Z,41.93
2018-07-08T13:23:39.839Z,42.89
2018-07-08T13:26:08.705Z,43.12
2018-07-08T13:28:37.560Z,43.60
2018-07-08T13:31:07.065Z,43.91
2018-07-08T13:33:35.900Z,44.22
2018-07-08T13:36:05.017Z,44.55
2018-07-08T13:38:33.780Z,44.58
2018-07-08T13:41:02.514Z,44.49
2018-07-08T13:43:31.639Z,44.08
2018-07-08T13:46:00.395Z,44.32
2018-07-08T13:48:29.448Z,43.81
2018-07-08T13:50:58.287Z,43.74
2018-07-08T13:53:27.344Z,43.77
2018-07-08T13:55:56.029Z,43.88
2018-07-08T13:58:24.741Z,44.08
2018-07-08T14:00:53.575Z,44.18
2018-07-08T14:03:22.587Z,44.16
2018-07-08T14:05:51.201Z,44.27
2018-07-08T14:08:19.929Z,44.01
2018-07-08T14:10:48.693Z,42.67
2018-07-08T14:13:18.122Z,42.83
2018-07-08T14:15:47.209Z,41.89
2018-07-08T14:18:15.884Z,41.47
2018-07-08T14:20:44.768Z,40.94
2018-07-08T14:23:13.369Z,39.55
2018-07-08T14:25:42.253Z,38.35
2018-07-08T14:28:10.918Z,37.45
2018-07-08T14:30:39.540Z,36.69
2018-07-08T14:33:08.507Z,36.51
2018-07-08T14:35:37.295Z,35.49
2018-07-08T14:38:06.266Z,35.11
2018-07-08T14:40:35.621Z,33.81
2018-07-08T14:43:04.295Z,32.48
2018-07-08T14:45:33.268Z,31.45
2018-07-08T14:48:02.329Z,30.69
2018-07-08T14:50:31.553Z,30.04
2018-07-08T14:53:00.215Z,29.40
2018-07-08T14:55:29.009Z,28.80
2018-07-08T14:57:57.663Z,28.43
2018-07-08T15:00:26.718Z,28.03
2018-07-08T15:02:55.753Z,27.80
2018-07-08T15:05:25.090Z,27.68
2018-07-08T15:07:53.760Z,27.51
2018-07-08T15:10:22.450Z,27.39
2018-07-08T15:12:51.110Z,27.27
2018-07-08T15:15:20.159Z,27.25
2018-07-08T15:17:48.786Z,27.24
2018-07-08T15:20:17.738Z,27.09
2018-07-08T15:22:46.594Z,26.95
2018-07-08T15:25:15.600Z,26.86
2018-07-08T15:27:44.286Z,26.64
2018-07-08T15:30:13.017Z,26.63
2018-07-08T15:32:41.735Z,26.56
2018-07-08T15:35:10.656Z,26.49
2018-07-08T15:37:40.768Z,26.57
2018-07-08T15:40:09.840Z,26.52
2018-07-08T15:42:38.537Z,26.38
2018-07-08T15:45:08.228Z,26.29
2018-07-08T15:47:36.908Z,26.21
2018-07-08T15:50:05.971Z,26.13
2018-07-08T15:52:34.732Z,26.11
2018-07-08T15:55:03.610Z,25.98
2018-07-08T15:57:32.512Z,25.92
2018-07-08T16:00:01.189Z,25.81
2018-07-08T16:02:30.555Z,25.79
2018-07-08T16:04:59.332Z,25.78
2018-07-08T16:07:28.061Z,25.70
2018-07-08T16:09:57.027Z,25.68
2018-07-08T16:12:25.747Z,25.47
2018-07-08T16:14:54.977Z,25.37
2018-07-08T16:17:23.862Z,25.27
2018-07-08T16:19:52.596Z,25.24
2018-07-08T16:22:21.799Z,25.31
2018-07-08T16:24:50.619Z,25.47
2018-07-08T16:27:19.646Z,25.43
2018-07-08T16:29:48.612Z,25.39
2018-07-08T16:32:17.663Z,25.54
2018-07-08T16:34:46.720Z,25.57
2018-07-08T16:37:15.429Z,25.55
2018-07-08T16:39:44.141Z,25.39
2018-07-08T16:42:12.845Z,25.38
2018-07-08T16:44:42.070Z,25.34
2018-07-08T16:47:13.168Z,25.33
2018-07-08T16:49:41.861Z,25.27
2018-07-08T16:52:10.632Z,25.34
2018-07-08T16:54:39.693Z,25.26
2018-07-08T16:57:08.473Z,25.23
2018-07-08T16:59:37.150Z,25.25
2018-07-08T17:02:12.569Z,25.28
2018-07-08T17:04:41.433Z,25.26
2018-07-08T17:07:10.447Z,25.25
2018-07-08T17:09:39.222Z,25.23
2018-07-08T17:12:08.086Z,25.15
2018-07-08T17:14:37.271Z,25.09
2018-07-08T17:17:06.055Z,25.00
2018-07-08T17:19:34.790Z,24.99
2018-07-08T17:22:03.612Z,24.98
2018-07-08T17:24:32.558Z,24.89
2018-07-08T17:27:01.287Z,24.90
2018-07-08T17:29:30.249Z,24.93
2018-07-08T17:31:59.303Z,24.88
2018-07-08T17:34:28.136Z,24.84
2018-07-08T17:36:57.423Z,24.82
2018-07-08T17:39:26.246Z,24.78
2018-07-08T17:41:55.346Z,24.76
2018-07-08T17:44:24.400Z,24.82
2018-07-08T17:46:53.216Z,24.72
2018-07-08T17:49:22.182Z,24.68
2018-07-08T17:51:51.710Z,24.69
2018-07-08T17:54:21.509Z,24.62
2018-07-08T17:56:50.244Z,24.68
2018-07-08T17:59:19.032Z,24.67
2018-07-08T18:01:48.163Z,24.62
2018-07-08T18:04:16.884Z,24.57
2018-07-08T18:06:46.290Z,24.57
2018-07-08T18:09:15.551Z,24.56
2018-07-08T18:11:44.371Z,24.59
2018-07-08T18:14:13.420Z,24.55
2018-07-08T18:16:42.702Z,24.57
2018-07-08T18:19:11.588Z,24.51
2018-07-08T18:21:40.811Z,24.48
2018-07-08T18:24:09.537Z,24.44
2018-07-08T18:26:38.229Z,24.45
2018-07-08T18:29:07.009Z,24.41
2018-07-08T18:31:35.900Z,24.41
2018-07-08T18:34:04.622Z,24.38
2018-07-08T18:36:33.337Z,24.35
2018-07-08T18:39:02.127Z,24.31
2018-07-08T18:41:30.941Z,24.30
2018-07-08T18:43:59.727Z,24.32
2018-07-08T18:46:28.501Z,24.28
2018-07-08T18:48:57.468Z,24.25
2018-07-08T18:51:26.192Z,24.23
2018-07-08T18:53:54.853Z,24.18
2018-07-08T18:56:24.098Z,24.16
2018-07-08T18:58:53.026Z,24.16
2018-07-08T19:01:21.947Z,24.18
2018-07-08T19:03:52.066Z,24.20
2018-07-08T19:06:20.944Z,24.26
2018-07-08T19:08:49.700Z,24.21
2018-07-08T19:11:18.415Z,24.18
2018-07-08T19:13:47.727Z,24.11
2018-07-08T19:16:16.857Z,24.07
2018-07-08T19:18:45.628Z,24.03
2018-07-08T19:21:14.392Z,24.06
2018-07-08T19:23:43.429Z,24.15
2018-07-08T19:26:12.388Z,24.16
2018-07-08T19:28:41.086Z,24.20
2018-07-08T19:31:09.849Z,24.16
2018-07-08T19:33:38.760Z,24.15
2018-07-08T19:36:07.700Z,24.12
2018-07-08T19:38:36.511Z,24.05
2018-07-08T19:41:05.868Z,24.01
2018-07-08T19:43:34.827Z,24.01
2018-07-08T19:46:04.026Z,23.98
2018-07-08T19:48:33.614Z,23.97
2018-07-08T19:51:02.407Z,23.92
2018-07-08T19:53:31.431Z,23.93
2018-07-08T19:56:00.982Z,23.90
2018-07-08T19:58:29.827Z,23.88
2018-07-08T20:00:58.631Z,23.86
2018-07-08T20:03:27.327Z,23.86
2018-07-08T20:05:55.971Z,23.81
2018-07-08T20:08:24.738Z,23.80
2018-07-08T20:10:53.849Z,23.76
2018-07-08T20:13:22.700Z,23.80
2018-07-08T20:15:52.039Z,23.78
2018-07-08T20:18:20.808Z,23.75
2018-07-08T20:20:49.636Z,23.74
2018-07-08T20:23:19.447Z,23.71
2018-07-08T20:25:48.319Z,23.69
2018-07-08T20:28:17.145Z,23.69
2018-07-08T20:30:46.266Z,23.66
2018-07-08T20:33:14.948Z,23.65
2018-07-08T20:35:43.950Z,23.63
2018-07-08T20:38:12.561Z,23.62
2018-07-08T20:40:41.679Z,23.63
2018-07-08T20:43:10.566Z,23.57
2018-07-08T20:45:39.394Z,23.55
2018-07-08T20:48:08.233Z,23.57
2018-07-08T20:50:36.926Z,23.54
2018-07-08T20:53:05.723Z,23.55
2018-07-08T20:55:34.577Z,23.59
2018-07-08T20:58:03.311Z,23.59
2018-07-08T21:00:32.330Z,23.54
2018-07-08T21:03:01.074Z,23.57
2018-07-08T21:05:30.422Z,23.54
2018-07-08T21:07:59.202Z,23.50
2018-07-08T21:10:28.029Z,23.49
2018-07-08T21:12:56.673Z,23.46
2018-07-08T21:15:25.299Z,23.45
2018-07-08T21:17:53.976Z,23.42
2018-07-08T21:20:22.761Z,23.37
2018-07-08T21:22:51.800Z,23.35
2018-07-08T21:25:20.510Z,23.31
2018-07-08T21:27:50.242Z,23.23
2018-07-08T21:30:18.866Z,23.18
2018-07-08T21:32:47.476Z,23.20
2018-07-08T21:35:17.083Z,23.19
2018-07-08T21:37:46.137Z,23.14
2018-07-08T21:40:14.825Z,23.13
2018-07-08T21:42:43.782Z,23.12
2018-07-08T21:45:12.763Z,23.12
2018-07-08T21:47:41.580Z,23.11
2018-07-08T21:50:10.180Z,23.10
2018-07-08T21:52:38.931Z,23.10
2018-07-08T21:55:07.768Z,23.09
2018-07-08T21:57:36.471Z,23.09
2018-07-08T22:00:05.786Z,23.08
2018-07-08T22:02:34.626Z,23.06
2018-07-08T22:05:03.528Z,23.07
2018-07-08T22:07:37.742Z,23.05
2018-07-08T22:10:07.887Z,23.04
2018-07-08T22:12:38.172Z,23.03
2018-07-08T22:15:06.999Z,23.03
2018-07-08T22:17:35.638Z,23.03
2018-07-08T22:20:04.665Z,23.03
2018-07-08T22:22:33.420Z,23.01
2018-07-08T22:25:02.067Z,22.99
2018-07-08T22:27:32.043Z,22.96
2018-07-08T22:30:00.711Z,22.92
2018-07-08T22:32:29.414Z,22.88
2018-07-08T22:34:58.716Z,22.86
2018-07-08T22:37:27.525Z,22.84
2018-07-08T22:39:56.380Z,22.84
2018-07-08T22:42:25.394Z,22.82
2018-07-08T22:44:54.908Z,22.80
2018-07-08T22:47:23.552Z,22.77
2018-07-08T22:49:52.259Z,22.77
2018-07-08T22:52:21.113Z,22.79
2018-07-08T22:54:49.768Z,22.79
2018-07-08T22:57:18.436Z,22.80
2018-07-08T22:59:58.228Z,22.79
2018-07-08T23:02:39.288Z,22.79
2018-07-08T23:05:07.972Z,22.80
2018-07-08T23:07:36.670Z,22.78
2018-07-08T23:10:05.350Z,22.77
2018-07-08T23:12:34.090Z,22.76
2018-07-08T23:15:03.070Z,22.74
2018-07-08T23:17:32.155Z,22.74
2018-07-08T23:20:01.917Z,22.74
2018-07-08T23:22:42.178Z,22.75
2018-07-08T23:25:12.368Z,22.76
2018-07-08T23:27:41.333Z,22.72
2018-07-08T23:30:10.329Z,22.70
2018-07-08T23:32:39.481Z,22.69
2018-07-08T23:35:08.218Z,22.68
2018-07-08T23:37:36.922Z,22.66
2018-07-08T23:40:05.616Z,22.65
2018-07-08T23:42:34.264Z,22.67
2018-07-08T23:45:02.964Z,22.65
2018-07-08T23:47:31.671Z,22.63
2018-07-08T23:50:00.651Z,22.61
2018-07-08T23:52:29.626Z,22.59
2018-07-08T23:54:58.294Z,22.57
2018-07-08T23:57:27.018Z,22.58
2018-07-08T23:59:56.039Z,22.55
